createdAt,value
2022-12-17T00:00:34.367Z,172.05
2022-12-17T00:03:20.550Z,169.35
2022-12-17T00:06:06.015Z,179.57
2022-12-17T00:08:51.760Z,172.15
2022-12-17T00:11:37.798Z,168.30
2022-12-17T00:14:23.389Z,163.75
2022-12-17T00:17:08.896Z,161.73
2022-12-17T00:19:56.312Z,169.38
2022-12-17T00:22:41.905Z,179.35
2022-12-17T00:25:28.000Z,180.23
2022-12-17T00:28:13.638Z,171.02
2022-12-17T00:30:59.342Z,193.30
2022-12-17T00:33:45.096Z,193.52
2022-12-17T00:36:30.459Z,179.85
2022-12-17T00:39:16.188Z,176.35
2022-12-17T00:42:01.697Z,185.18
2022-12-17T00:44:47.281Z,177.52
2022-12-17T00:47:32.816Z,180.25
2022-12-17T00:50:18.539Z,175.40
2022-12-17T00:53:04.023Z,177.02
2022-12-17T00:55:49.546Z,172.48
2022-12-17T00:58:35.280Z,170.40
2022-12-17T01:01:20.946Z,183.48
2022-12-17T01:04:06.588Z,191.25
2022-12-17T01:06:52.460Z,173.30
2022-12-17T01:09:39.415Z,180.30
2022-12-17T01:12:26.377Z,178.07
2022-12-17T01:15:13.209Z,183.52
2022-12-17T01:17:59.109Z,184.43
2022-12-17T01:20:44.671Z,177.25
2022-12-17T01:23:30.169Z,185.48
2022-12-17T01:26:16.457Z,181.65
2022-12-17T01:29:02.416Z,185.60
2022-12-17T01:31:47.901Z,196.18
2022-12-17T01:34:35.623Z,188.40
2022-12-17T01:37:22.642Z,205.07
2022-12-17T01:40:08.162Z,214.07
2022-12-17T01:43:09.696Z,190.73
2022-12-17T01:46:00.271Z,198.32
2022-12-17T01:48:51.948Z,197.05
2022-12-17T01:51:38.509Z,202.60
2022-12-17T01:54:24.827Z,204.63
2022-12-17T01:57:11.064Z,189.05
2022-12-17T02:00:16.980Z,195.05
2022-12-17T02:03:02.687Z,192.77
2022-12-17T02:06:09.976Z,214.65
2022-12-17T02:12:39.892Z,176.00
2022-12-17T02:15:37.667Z,205.98
2022-12-17T02:18:33.356Z,209.40
2022-12-17T02:24:18.007Z,190.70
2022-12-17T02:27:06.566Z,195.48
2022-12-17T02:30:02.646Z,194.30
2022-12-17T02:32:52.430Z,195.15
2022-12-17T02:35:43.597Z,202.90
2022-12-17T02:38:43.987Z,192.10
2022-12-17T02:41:35.933Z,197.80
2022-12-17T02:44:23.639Z,209.70
2022-12-17T02:47:12.332Z,198.07
2022-12-17T02:49:58.653Z,212.52
2022-12-17T02:52:45.629Z,209.30
2022-12-17T02:55:31.625Z,208.90
2022-12-17T02:58:17.236Z,197.82
2022-12-17T03:01:02.734Z,191.25
2022-12-17T03:03:50.419Z,201.00
2022-12-17T03:06:36.720Z,203.60
2022-12-17T03:09:23.215Z,204.18
2022-12-17T03:12:09.920Z,194.93
2022-12-17T03:14:55.284Z,206.32
2022-12-17T03:17:40.853Z,207.52
2022-12-17T03:20:27.016Z,206.32
2022-12-17T03:23:19.626Z,189.32
2022-12-17T03:26:04.957Z,197.57
2022-12-17T03:28:50.529Z,195.20
2022-12-17T03:31:36.050Z,203.70
2022-12-17T03:34:21.898Z,205.52
2022-12-17T03:37:07.448Z,187.93
2022-12-17T03:39:52.804Z,192.63
2022-12-17T03:42:38.385Z,200.35
2022-12-17T03:45:24.314Z,190.52
2022-12-17T03:48:09.666Z,193.38
2022-12-17T03:50:55.299Z,191.73
2022-12-17T03:53:40.623Z,191.65
2022-12-17T03:56:26.343Z,189.52
2022-12-17T03:59:11.908Z,181.60
2022-12-17T04:01:57.469Z,200.57
2022-12-17T04:04:43.100Z,181.45
2022-12-17T04:07:30.335Z,198.75
2022-12-17T04:10:16.112Z,199.40
2022-12-17T04:13:01.808Z,194.60
2022-12-17T04:15:47.320Z,212.00
2022-12-17T04:18:32.993Z,212.10
2022-12-17T04:21:18.745Z,205.57
2022-12-17T04:24:04.337Z,187.23
2022-12-17T04:26:49.862Z,194.15
2022-12-17T04:29:35.683Z,181.75
2022-12-17T04:32:21.153Z,199.48
2022-12-17T04:35:06.756Z,186.90
2022-12-17T04:37:52.281Z,196.40
2022-12-17T04:40:39.501Z,190.45
2022-12-17T04:43:31.083Z,187.70
2022-12-17T04:46:17.656Z,191.23
2022-12-17T04:49:04.414Z,187.40
2022-12-17T04:51:50.290Z,196.35
2022-12-17T04:54:35.835Z,184.75
2022-12-17T04:57:21.686Z,185.25
2022-12-17T05:00:07.458Z,178.18
2022-12-17T05:02:53.263Z,186.45
2022-12-17T05:05:38.972Z,192.50
2022-12-17T05:08:24.552Z,181.48
2022-12-17T05:11:10.137Z,187.63
2022-12-17T05:13:55.643Z,177.25
2022-12-17T05:16:41.306Z,198.02
2022-12-17T05:19:26.770Z,196.93
2022-12-17T05:22:12.340Z,184.27
2022-12-17T05:24:57.700Z,184.02
2022-12-17T05:27:43.281Z,191.20
2022-12-17T05:30:29.281Z,190.13
2022-12-17T05:33:22.809Z,180.18
2022-12-17T05:36:08.298Z,183.95
2022-12-17T05:39:07.528Z,181.73
2022-12-17T05:41:53.334Z,186.90
2022-12-17T05:44:39.485Z,175.15
2022-12-17T05:47:25.030Z,178.75
2022-12-17T05:50:10.444Z,177.15
2022-12-17T05:52:55.863Z,170.48
2022-12-17T05:55:41.457Z,179.80
2022-12-17T05:58:30.036Z,176.18
2022-12-17T06:01:24.512Z,172.23
2022-12-17T06:04:10.541Z,171.88
2022-12-17T06:06:56.171Z,166.90
2022-12-17T06:09:41.911Z,159.75
2022-12-17T06:12:27.295Z,180.55
2022-12-17T06:15:12.990Z,166.15
2022-12-17T06:18:01.787Z,170.70
2022-12-17T06:20:47.474Z,158.70
2022-12-17T06:23:33.119Z,186.85
2022-12-17T06:26:18.897Z,174.75
2022-12-17T06:29:04.350Z,165.55
2022-12-17T06:31:49.907Z,160.07
2022-12-17T06:34:35.470Z,150.17
2022-12-17T06:37:21.045Z,147.55
2022-12-17T06:40:06.423Z,141.65
2022-12-17T06:42:51.996Z,152.38
2022-12-17T06:45:37.507Z,148.43
2022-12-17T06:48:25.418Z,145.48
2022-12-17T06:51:15.065Z,137.27
2022-12-17T06:54:01.200Z,152.35
2022-12-17T06:56:47.192Z,144.02
2022-12-17T06:59:33.018Z,151.00
2022-12-17T07:02:18.588Z,146.63
2022-12-17T07:05:04.056Z,131.80
2022-12-17T07:07:49.419Z,137.25
2022-12-17T07:10:34.890Z,136.20
2022-12-17T07:13:27.020Z,127.45
2022-12-17T07:16:13.771Z,146.63
2022-12-17T07:18:59.534Z,134.00
2022-12-17T07:21:45.549Z,135.63
2022-12-17T07:24:30.926Z,133.38
2022-12-17T07:27:16.707Z,138.02
2022-12-17T07:30:02.105Z,139.70
2022-12-17T07:32:47.689Z,130.95
2022-12-17T07:35:33.179Z,154.70
2022-12-17T07:38:23.212Z,137.38
2022-12-17T07:41:08.748Z,133.95
2022-12-17T07:43:54.353Z,155.25
2022-12-17T07:46:39.928Z,132.45
2022-12-17T07:49:26.473Z,137.20
2022-12-17T07:52:12.985Z,123.57
2022-12-17T07:54:58.673Z,125.28
2022-12-17T07:57:44.744Z,118.65
2022-12-17T08:00:31.425Z,112.43
2022-12-17T08:03:18.604Z,123.97
2022-12-17T08:06:04.794Z,111.43
2022-12-17T08:08:50.552Z,116.22
2022-12-17T08:11:36.014Z,108.70
2022-12-17T08:14:21.853Z,116.13
2022-12-17T08:17:07.360Z,114.10
2022-12-17T08:19:52.893Z,121.68
2022-12-17T08:22:38.342Z,124.47
2022-12-17T08:25:24.090Z,122.53
2022-12-17T08:28:41.554Z,133.77
2022-12-17T08:31:21.508Z,119.93
2022-12-17T08:34:08.194Z,135.68
2022-12-17T08:36:53.944Z,131.20
2022-12-17T08:39:39.667Z,129.90
2022-12-17T08:42:25.101Z,132.90
2022-12-17T08:45:10.635Z,133.55
2022-12-17T08:48:02.049Z,126.43
2022-12-17T08:50:49.315Z,131.85
2022-12-17T08:53:35.389Z,128.32
2022-12-17T08:56:21.625Z,127.18
2022-12-17T08:59:07.317Z,130.02
2022-12-17T09:01:52.932Z,131.70
2022-12-17T09:04:38.516Z,131.13
2022-12-17T09:07:24.323Z,132.38
2022-12-17T09:10:09.745Z,142.05
2022-12-17T09:12:57.552Z,119.22
2022-12-17T09:15:46.770Z,120.15
2022-12-17T09:18:36.767Z,126.32
2022-12-17T09:21:22.331Z,135.10
2022-12-17T09:24:07.844Z,119.38
2022-12-17T09:26:54.076Z,124.90
2022-12-17T09:29:39.855Z,130.15
2022-12-17T09:32:25.366Z,131.98
2022-12-17T09:35:11.266Z,123.65
2022-12-17T09:37:57.018Z,138.07
2022-12-17T09:40:43.732Z,127.35
2022-12-17T09:44:11.034Z,140.93
2022-12-17T09:47:10.110Z,128.85
2022-12-17T09:49:56.013Z,130.85
2022-12-17T09:52:47.730Z,125.05
2022-12-17T09:55:33.106Z,133.25
2022-12-17T09:58:20.225Z,129.40
2022-12-17T10:01:07.365Z,121.57
2022-12-17T10:03:54.926Z,127.38
2022-12-17T10:06:46.222Z,125.22
2022-12-17T10:09:34.556Z,119.35
2022-12-17T10:12:38.449Z,130.05
2022-12-17T10:15:26.429Z,135.50
2022-12-17T10:18:12.146Z,129.13
2022-12-17T10:21:04.973Z,132.82
2022-12-17T10:23:52.976Z,117.95
2022-12-17T10:26:47.187Z,128.30
2022-12-17T10:29:52.604Z,122.07
2022-12-17T10:32:40.333Z,122.13
2022-12-17T10:35:40.488Z,119.35
2022-12-17T10:38:36.603Z,114.75
2022-12-17T10:41:22.344Z,107.25
2022-12-17T10:44:08.304Z,125.35
2022-12-17T10:46:53.869Z,130.88
2022-12-17T10:49:42.756Z,119.82
2022-12-17T10:52:50.143Z,128.77
2022-12-17T10:55:47.278Z,115.43
2022-12-17T10:58:35.411Z,117.68
2022-12-17T11:01:23.085Z,126.35
2022-12-17T11:04:11.853Z,131.43
2022-12-17T11:07:06.484Z,141.07
2022-12-17T11:10:09.175Z,121.75
2022-12-17T11:13:03.534Z,127.00
2022-12-17T11:16:07.310Z,130.48
2022-12-17T11:19:21.595Z,130.98
2022-12-17T11:22:10.643Z,123.20
2022-12-17T11:25:07.990Z,123.28
2022-12-17T11:28:05.474Z,132.90
2022-12-17T11:30:58.925Z,137.07
2022-12-17T11:33:55.867Z,140.25
2022-12-17T11:36:48.946Z,138.82
2022-12-17T11:39:37.413Z,137.65
2022-12-17T11:43:01.754Z,137.45
2022-12-17T11:45:55.123Z,134.50
2022-12-17T11:49:04.236Z,130.63
2022-12-17T11:52:33.052Z,139.57
2022-12-17T11:55:51.894Z,133.07
2022-12-17T11:59:11.381Z,129.27
2022-12-17T12:02:31.946Z,138.55
2022-12-17T12:05:35.824Z,143.00
2022-12-17T12:08:43.048Z,136.27
2022-12-17T12:11:40.667Z,136.70
2022-12-17T12:14:50.013Z,139.77
2022-12-17T12:18:08.661Z,140.82
2022-12-17T12:21:15.871Z,131.93
2022-12-17T12:24:06.759Z,137.13
2022-12-17T12:27:21.508Z,142.10
2022-12-17T12:30:22.423Z,142.70
2022-12-17T12:33:40.373Z,133.50
2022-12-17T12:36:30.630Z,137.88
2022-12-17T12:39:17.226Z,139.82
2022-12-17T12:42:20.436Z,147.88
2022-12-17T12:45:20.601Z,135.20
2022-12-17T12:48:37.255Z,138.80
2022-12-17T12:51:34.096Z,135.27
2022-12-17T12:54:39.000Z,126.57
2022-12-17T12:57:43.638Z,136.07
2022-12-17T13:00:58.928Z,121.73
2022-12-17T13:03:50.035Z,142.80
2022-12-17T13:06:43.717Z,130.60
2022-12-17T13:09:17.074Z,130.82
2022-12-17T13:11:48.777Z,138.75
2022-12-17T13:14:42.457Z,130.05
2022-12-17T13:17:31.083Z,133.45
2022-12-17T13:19:58.203Z,133.30
2022-12-17T13:22:25.298Z,134.25
2022-12-17T13:24:54.851Z,128.18
2022-12-17T13:27:35.525Z,136.85
2022-12-17T13:30:22.193Z,138.73
2022-12-17T13:33:08.923Z,132.32
2022-12-17T13:36:06.637Z,125.50
2022-12-17T13:38:37.095Z,128.77
2022-12-17T13:41:11.283Z,136.63
2022-12-17T13:43:49.007Z,130.55
2022-12-17T13:46:27.798Z,133.85
2022-12-17T13:48:57.862Z,132.88
2022-12-17T13:51:27.923Z,123.82
2022-12-17T13:53:59.932Z,132.65
2022-12-17T13:56:35.725Z,134.68
2022-12-17T13:59:09.279Z,136.80
2022-12-17T14:01:48.818Z,131.00
2022-12-17T14:04:27.423Z,126.85
2022-12-17T14:07:05.072Z,119.07
2022-12-17T14:09:42.996Z,128.65
2022-12-17T14:12:25.078Z,117.07
2022-12-17T14:15:00.169Z,132.45
2022-12-17T14:17:30.003Z,130.85
2022-12-17T14:20:02.027Z,119.72
2022-12-17T14:23:00.698Z,126.88
2022-12-17T14:25:34.005Z,129.15
2022-12-17T14:28:04.114Z,124.38
2022-12-17T14:31:17.355Z,133.02
2022-12-17T14:33:30.915Z,127.13
2022-12-17T14:36:08.124Z,128.85
2022-12-17T14:38:38.736Z,131.90
2022-12-17T14:41:31.048Z,130.05
2022-12-17T14:44:00.120Z,124.18
2022-12-17T14:46:31.887Z,126.32
2022-12-17T14:49:01.136Z,119.53
2022-12-17T14:51:47.321Z,123.13
2022-12-17T14:54:14.437Z,120.40
2022-12-17T14:56:42.733Z,118.30
2022-12-17T14:59:43.600Z,118.28
2022-12-17T15:02:20.453Z,117.47
2022-12-17T15:04:47.679Z,114.10
2022-12-17T15:07:20.004Z,112.38
2022-12-17T15:09:47.120Z,120.93
2022-12-17T15:12:14.205Z,103.72
2022-12-17T15:14:42.134Z,109.18
2022-12-17T15:17:09.278Z,100.88
2022-12-17T15:19:36.604Z,110.20
2022-12-17T15:22:04.612Z,103.45
2022-12-17T15:24:31.818Z,102.10
2022-12-17T15:27:01.515Z,100.25
2022-12-17T15:29:29.043Z,101.55
2022-12-17T15:31:56.081Z,110.00
2022-12-17T15:34:23.561Z,111.43
2022-12-17T15:36:50.859Z,106.97
2022-12-17T15:39:17.953Z,102.40
2022-12-17T15:42:03.746Z,112.30
2022-12-17T15:44:30.804Z,105.47
2022-12-17T15:46:57.946Z,102.07
2022-12-17T15:49:24.999Z,103.10
2022-12-17T15:51:52.512Z,96.57
2022-12-17T15:54:19.585Z,101.90
2022-12-17T15:56:53.871Z,92.85
2022-12-17T15:59:21.331Z,80.60
2022-12-17T16:01:48.663Z,70.47
2022-12-17T16:04:21.523Z,74.43
2022-12-17T16:06:51.759Z,74.07
2022-12-17T16:09:19.030Z,73.27
2022-12-17T16:11:46.166Z,79.65
2022-12-17T16:14:13.298Z,79.93
2022-12-17T16:16:40.460Z,85.63
2022-12-17T16:19:07.649Z,82.90
2022-12-17T16:21:34.724Z,85.00
2022-12-17T16:24:01.804Z,82.03
2022-12-17T16:26:29.135Z,91.13
2022-12-17T16:28:58.066Z,83.47
2022-12-17T16:31:25.884Z,83.93
2022-12-17T16:33:53.014Z,91.45
2022-12-17T16:36:21.659Z,77.70
2022-12-17T16:38:52.342Z,84.10
2022-12-17T16:41:20.718Z,63.88
2022-12-17T16:43:48.126Z,68.93
2022-12-17T16:46:27.538Z,69.50
2022-12-17T16:48:56.291Z,77.05
2022-12-17T16:51:29.254Z,73.83
2022-12-17T16:53:58.106Z,66.20
2022-12-17T16:56:28.855Z,67.37
2022-12-17T16:58:56.375Z,69.23
2022-12-17T17:01:26.281Z,86.13
2022-12-17T17:03:54.165Z,82.63
2022-12-17T17:06:21.898Z,79.13
2022-12-17T17:08:49.595Z,91.22
2022-12-17T17:11:22.660Z,79.20
2022-12-17T17:13:51.628Z,78.57
2022-12-17T17:16:21.125Z,76.35
2022-12-17T17:18:48.545Z,71.43
2022-12-17T17:21:35.321Z,72.75
2022-12-17T17:24:20.971Z,69.32
2022-12-17T17:26:50.559Z,72.20
2022-12-17T17:29:18.238Z,66.88
2022-12-17T17:34:38.930Z,79.40
2022-12-17T17:37:06.140Z,75.88
2022-12-17T17:39:34.433Z,88.27
2022-12-17T17:42:01.976Z,71.88
2022-12-17T17:44:29.182Z,84.03
2022-12-17T17:46:58.123Z,78.85
2022-12-17T17:49:25.322Z,82.90
2022-12-17T17:52:08.951Z,89.00
2022-12-17T17:54:38.407Z,73.80
2022-12-17T17:57:08.394Z,74.18
2022-12-17T17:59:35.644Z,79.60
2022-12-17T18:02:03.649Z,69.22
2022-12-17T18:04:31.622Z,70.22
2022-12-17T18:09:45.871Z,78.77
2022-12-17T18:12:31.308Z,65.50
2022-12-17T18:15:14.368Z,70.43
2022-12-17T18:17:44.447Z,68.07
2022-12-17T18:20:12.953Z,74.20
2022-12-17T18:22:40.170Z,62.58
2022-12-17T18:25:07.447Z,71.88
2022-12-17T18:27:34.600Z,67.43
2022-12-17T18:30:01.673Z,73.43
2022-12-17T18:32:28.804Z,72.00
2022-12-17T18:34:55.866Z,68.50
2022-12-17T18:37:23.008Z,68.80
2022-12-17T18:39:50.049Z,72.97
2022-12-17T18:42:35.776Z,69.67
2022-12-17T18:45:03.949Z,69.60
2022-12-17T18:47:31.119Z,69.93
2022-12-17T18:49:58.208Z,78.03
2022-12-17T18:52:25.306Z,69.03
2022-12-17T18:54:52.461Z,73.40
2022-12-17T18:57:19.550Z,70.23
2022-12-17T18:59:46.736Z,73.20
2022-12-17T19:02:14.818Z,72.67
2022-12-17T19:04:42.478Z,77.13
2022-12-17T19:07:09.686Z,80.23
2022-12-17T19:09:38.508Z,83.03
2022-12-17T19:12:07.816Z,72.10
2022-12-17T19:14:35.651Z,72.60
2022-12-17T19:17:03.253Z,69.00
2022-12-17T19:19:30.360Z,79.10
2022-12-17T19:21:59.803Z,71.07
2022-12-17T19:24:26.998Z,74.40
2022-12-17T19:26:54.323Z,69.93
2022-12-17T19:29:21.799Z,65.00
2022-12-17T19:31:49.346Z,67.03
2022-12-17T19:34:18.286Z,70.43
2022-12-17T19:36:45.873Z,68.53
2022-12-17T19:39:16.554Z,83.70
2022-12-17T19:41:44.079Z,82.10
2022-12-17T19:44:15.981Z,91.13
2022-12-17T19:46:43.646Z,84.10
2022-12-17T19:49:13.293Z,84.77
2022-12-17T19:51:43.148Z,88.73
2022-12-17T19:54:15.115Z,93.23
2022-12-17T19:56:44.068Z,81.73
2022-12-17T19:59:12.103Z,90.23
2022-12-17T20:01:44.935Z,86.00
2022-12-17T20:04:13.959Z,92.73
2022-12-17T20:06:41.887Z,81.67
2022-12-17T20:09:08.989Z,88.53
2022-12-17T20:11:36.522Z,84.97
2022-12-17T20:14:07.514Z,83.83
2022-12-17T20:16:38.308Z,92.33
2022-12-17T20:19:08.576Z,88.03
2022-12-17T20:21:35.892Z,92.37
2022-12-17T20:24:03.091Z,93.43
2022-12-17T20:26:30.419Z,105.60
2022-12-17T20:28:59.167Z,104.77
2022-12-17T20:31:28.149Z,102.03
2022-12-17T20:33:55.431Z,101.75
2022-12-17T20:36:23.400Z,91.90
2022-12-17T20:38:50.685Z,93.20
2022-12-17T20:41:24.019Z,91.43
2022-12-17T20:43:51.703Z,91.23
2022-12-17T20:46:20.937Z,94.10
2022-12-17T20:48:48.305Z,98.30
2022-12-17T20:51:24.420Z,111.07
2022-12-17T20:53:53.745Z,105.13
2022-12-17T20:56:30.431Z,94.13
2022-12-17T20:59:04.076Z,104.33
2022-12-17T21:01:33.406Z,102.77
2022-12-17T21:04:01.036Z,93.57
2022-12-17T21:06:40.504Z,101.23
2022-12-17T21:09:08.315Z,104.53
2022-12-17T21:11:37.147Z,104.07
2022-12-17T21:14:10.029Z,98.03
2022-12-17T21:16:38.890Z,101.40
2022-12-17T21:19:07.712Z,106.77
2022-12-17T21:21:37.615Z,106.23
2022-12-17T21:24:05.808Z,107.37
2022-12-17T21:26:35.418Z,94.53
2022-12-17T21:29:04.371Z,93.63
2022-12-17T21:31:51.473Z,92.93
2022-12-17T21:34:25.580Z,88.13
2022-12-17T21:36:52.938Z,93.03
2022-12-17T21:39:21.075Z,99.05
2022-12-17T21:42:08.709Z,104.07
2022-12-17T21:44:36.551Z,105.30
2022-12-17T21:47:04.109Z,96.63
2022-12-17T21:49:32.887Z,94.22
2022-12-17T21:52:01.264Z,94.35
2022-12-17T21:54:28.550Z,112.88
2022-12-17T21:56:55.589Z,100.55
2022-12-17T21:59:22.689Z,105.97
2022-12-17T22:01:51.164Z,102.95
2022-12-17T22:04:18.486Z,96.25
2022-12-17T22:06:52.958Z,96.15
2022-12-17T22:09:29.961Z,77.87
2022-12-17T22:12:26.548Z,95.43
2022-12-17T22:14:53.726Z,78.10
2022-12-17T22:17:21.348Z,83.20
2022-12-17T22:19:48.440Z,74.85
2022-12-17T22:22:16.888Z,87.70
2022-12-17T22:24:44.162Z,82.72
2022-12-17T22:27:11.285Z,80.55
2022-12-17T22:29:56.940Z,90.13
2022-12-17T22:32:42.473Z,79.95
2022-12-17T22:36:46.482Z,81.15
2022-12-17T22:40:10.070Z,79.13
2022-12-17T22:44:32.403Z,79.05
2022-12-17T22:44:41.940Z,81.95
2022-12-17T22:46:19.785Z,80.63
2022-12-17T22:48:47.167Z,76.15
2022-12-17T22:51:16.281Z,89.78
2022-12-17T22:53:54.832Z,91.78
2022-12-17T22:56:47.757Z,93.18
2022-12-17T22:59:15.920Z,95.03
2022-12-17T23:01:43.678Z,86.28
2022-12-17T23:04:13.899Z,92.30
2022-12-17T23:06:42.047Z,78.68
2022-12-17T23:09:09.190Z,81.72
2022-12-17T23:11:36.365Z,83.65
2022-12-17T23:14:03.965Z,84.75
2022-12-17T23:16:31.142Z,86.38
2022-12-17T23:19:01.152Z,82.70
2022-12-17T23:21:28.465Z,88.10
2022-12-17T23:23:57.174Z,78.82
2022-12-17T23:26:27.076Z,90.93
2022-12-17T23:28:59.370Z,88.78
2022-12-17T23:31:29.063Z,84.18
2022-12-17T23:33:56.336Z,89.77
2022-12-17T23:36:25.337Z,77.38
2022-12-17T23:38:55.227Z,70.20
2022-12-17T23:41:26.001Z,76.80
2022-12-17T23:43:54.044Z,74.18
2022-12-17T23:46:23.221Z,70.55
2022-12-17T23:48:51.159Z,69.95
2022-12-17T23:51:20.630Z,67.53
2022-12-17T23:53:48.077Z,66.55
2022-12-17T23:56:27.227Z,74.30
2022-12-17T23:58:56.939Z,63.13
